createdAt,value
2022-11-03T00:01:51.324Z,8.93
2022-11-03T00:06:58.147Z,8.83
2022-11-03T00:12:04.239Z,8.73
2022-11-03T00:17:10.295Z,8.62
2022-11-03T00:22:16.159Z,8.48
2022-11-03T00:27:22.200Z,8.35
2022-11-03T00:32:28.006Z,8.27
2022-11-03T00:37:33.961Z,8.22
2022-11-03T00:42:40.061Z,8.15
2022-11-03T00:48:04.903Z,8.06
2022-11-03T00:53:10.750Z,7.99
2022-11-03T00:58:16.520Z,7.96
2022-11-03T01:03:22.833Z,7.91
2022-11-03T01:08:33.970Z,7.83
2022-11-03T01:13:39.820Z,7.78
2022-11-03T01:18:45.749Z,7.75
2022-11-03T01:23:51.882Z,7.72
2022-11-03T01:28:58.882Z,7.64
2022-11-03T01:34:04.951Z,7.58
2022-11-03T01:39:13.184Z,7.54
2022-11-03T01:44:35.055Z,7.48
2022-11-03T01:49:46.025Z,7.40
2022-11-03T01:59:24.836Z,7.33
2022-11-03T02:04:33.326Z,7.28
2022-11-03T02:09:39.214Z,7.23
2022-11-03T02:14:50.008Z,7.18
2022-11-03T02:20:00.405Z,7.17
2022-11-03T02:25:17.380Z,7.17
2022-11-03T02:30:23.451Z,7.12
2022-11-03T02:35:37.655Z,7.03
2022-11-03T02:40:48.457Z,6.98
2022-11-03T02:45:55.556Z,6.98
2022-11-03T02:51:03.109Z,6.96
2022-11-03T02:56:15.423Z,6.92
2022-11-03T03:01:28.760Z,6.90
2022-11-03T03:06:39.384Z,6.88
2022-11-03T03:11:47.862Z,6.87
2022-11-03T03:17:00.569Z,6.79
2022-11-03T03:22:15.356Z,6.71
2022-11-03T03:27:25.356Z,6.67
2022-11-03T03:32:36.753Z,6.66
2022-11-03T03:37:43.516Z,6.60
2022-11-03T03:42:51.869Z,6.48
2022-11-03T03:47:58.029Z,6.41
2022-11-03T03:53:06.074Z,6.42
2022-11-03T03:58:14.420Z,6.41
2022-11-03T04:03:22.286Z,6.34
2022-11-03T04:08:28.072Z,6.23
2022-11-03T04:13:53.232Z,6.17
2022-11-03T04:19:17.890Z,6.16
2022-11-03T04:24:23.867Z,6.19
2022-11-03T04:29:31.448Z,6.21
2022-11-03T04:34:37.342Z,6.18
2022-11-03T04:44:55.246Z,6.14
2022-11-03T04:50:01.098Z,6.11
2022-11-03T04:55:13.336Z,6.05
2022-11-03T05:00:21.084Z,6.00
2022-11-03T05:05:27.987Z,6.00
2022-11-03T05:10:33.924Z,6.01
2022-11-03T05:15:45.752Z,5.99
2022-11-03T05:20:56.507Z,5.95
2022-11-03T05:26:02.974Z,5.93
2022-11-03T05:31:20.933Z,5.92
2022-11-03T05:36:29.156Z,5.96
2022-11-03T05:41:36.622Z,5.98
2022-11-03T05:46:42.466Z,6.00
2022-11-03T05:51:48.844Z,6.04
2022-11-03T05:56:56.131Z,6.11
2022-11-03T06:02:04.667Z,6.20
2022-11-03T06:07:20.544Z,6.24
2022-11-03T06:12:30.533Z,6.32
2022-11-03T06:17:38.032Z,6.42
2022-11-03T06:22:45.755Z,6.76
2022-11-03T06:27:53.351Z,7.75
2022-11-03T06:33:02.051Z,9.25
2022-11-03T06:38:19.448Z,10.31
2022-11-03T06:43:28.970Z,10.48
2022-11-03T06:48:36.247Z,10.29
2022-11-03T06:53:43.031Z,10.25
2022-11-03T06:58:50.231Z,9.98
2022-11-03T07:04:01.500Z,9.69
2022-11-03T07:09:17.098Z,9.43
2022-11-03T07:14:25.276Z,9.21
2022-11-03T07:19:36.803Z,9.09
2022-11-03T07:24:44.999Z,9.08
2022-11-03T07:29:54.402Z,9.19
2022-11-03T07:35:11.592Z,10.07
2022-11-03T07:40:22.119Z,12.85
2022-11-03T07:45:40.122Z,15.47
2022-11-03T07:50:46.370Z,17.60
2022-11-03T07:55:56.597Z,19.03
2022-11-03T08:01:09.199Z,19.69
2022-11-03T08:06:18.865Z,18.62
2022-11-03T08:11:29.271Z,17.10
2022-11-03T08:16:36.364Z,15.80
2022-11-03T08:21:42.167Z,14.74
2022-11-03T08:26:48.248Z,14.31
2022-11-03T08:31:55.308Z,14.38
2022-11-03T08:37:01.650Z,14.05
2022-11-03T08:42:07.530Z,13.62
2022-11-03T08:47:13.411Z,13.27
2022-11-03T08:52:19.857Z,13.07
2022-11-03T08:57:25.889Z,13.73
2022-11-03T09:02:32.077Z,15.55
2022-11-03T09:13:04.449Z,19.37
2022-11-03T09:18:10.878Z,20.75
2022-11-03T09:23:17.608Z,21.80
2022-11-03T09:30:12.132Z,22.85
2022-11-03T09:35:20.551Z,23.27
2022-11-03T09:40:27.149Z,23.45
2022-11-03T09:45:33.716Z,23.66
2022-11-03T09:50:40.146Z,23.62
2022-11-03T09:55:46.285Z,23.38
2022-11-03T10:00:52.612Z,23.07
2022-11-03T10:05:58.779Z,22.79
2022-11-03T10:11:07.184Z,22.66
2022-11-03T10:16:18.726Z,22.34
2022-11-03T10:21:29.872Z,22.20
2022-11-03T10:26:45.583Z,22.04
2022-11-03T10:31:53.532Z,21.77
2022-11-03T10:37:21.918Z,21.34
2022-11-03T10:42:35.656Z,20.73
2022-11-03T10:47:42.236Z,20.16
2022-11-03T10:52:48.803Z,19.68
2022-11-03T10:57:56.133Z,19.26
2022-11-03T11:03:02.669Z,18.92
2022-11-03T11:08:11.707Z,18.59
2022-11-03T11:13:28.665Z,18.51
2022-11-03T11:19:01.443Z,18.49
2022-11-03T11:24:11.328Z,18.24
2022-11-03T11:29:37.112Z,17.99
2022-11-03T11:34:43.384Z,17.81
2022-11-03T11:39:49.457Z,17.54
2022-11-03T11:45:03.576Z,17.35
2022-11-03T11:50:23.829Z,17.18
2022-11-03T11:55:35.794Z,17.04
2022-11-03T12:00:54.128Z,16.94
2022-11-03T12:06:00.546Z,16.74
2022-11-03T12:11:09.447Z,16.58
2022-11-03T12:16:33.793Z,16.29
2022-11-03T12:21:50.517Z,15.94
2022-11-03T12:26:57.228Z,15.79
2022-11-03T12:32:03.465Z,15.76
2022-11-03T12:37:10.073Z,15.63
2022-11-03T12:42:16.341Z,15.46
2022-11-03T12:47:22.547Z,15.38
2022-11-03T12:52:28.582Z,15.32
2022-11-03T12:57:34.735Z,15.28
2022-11-03T13:02:41.031Z,15.27
2022-11-03T13:07:47.324Z,15.27
2022-11-03T13:12:53.305Z,15.24
2022-11-03T13:18:13.018Z,15.22
2022-11-03T13:23:22.972Z,15.26
2022-11-03T13:28:29.462Z,15.27
2022-11-03T13:33:35.788Z,15.30
2022-11-03T13:38:41.988Z,15.31
2022-11-03T13:43:48.063Z,15.31
2022-11-03T13:49:51.072Z,15.16
2022-11-03T13:59:47.207Z,15.03
2022-11-03T14:04:53.477Z,15.00
2022-11-03T14:10:02.592Z,14.75
2022-11-03T14:15:11.924Z,14.41
2022-11-03T14:20:18.120Z,14.10
2022-11-03T14:25:24.775Z,13.80
2022-11-03T14:30:30.732Z,13.50
2022-11-03T14:35:36.773Z,13.24
2022-11-03T14:41:01.518Z,12.97
2022-11-03T14:46:07.981Z,12.64
2022-11-03T14:51:14.115Z,12.35
2022-11-03T14:56:20.741Z,12.05
2022-11-03T15:01:27.167Z,11.76
2022-11-03T15:06:33.592Z,11.39
2022-11-03T15:11:39.665Z,10.94
2022-11-03T15:16:46.310Z,10.56
2022-11-03T15:21:52.233Z,10.16
2022-11-03T15:26:58.467Z,9.74
2022-11-03T15:32:04.824Z,9.41
2022-11-03T15:37:11.381Z,9.26
2022-11-03T15:42:18.044Z,9.07
2022-11-03T15:47:24.579Z,8.87
2022-11-03T15:52:31.633Z,8.74
2022-11-03T15:57:38.179Z,8.63
2022-11-03T16:02:45.218Z,8.47
2022-11-03T16:07:51.287Z,8.29
2022-11-03T16:12:57.251Z,8.06
2022-11-03T16:18:06.023Z,7.89
2022-11-03T16:23:12.397Z,7.77
2022-11-03T16:28:18.550Z,7.67
2022-11-03T16:33:25.347Z,7.50
2022-11-03T16:38:32.213Z,7.33
2022-11-03T16:43:38.864Z,7.18
2022-11-03T16:48:45.626Z,6.95
2022-11-03T16:53:54.655Z,6.73
2022-11-03T16:59:00.797Z,6.60
2022-11-03T17:04:07.022Z,6.53
2022-11-03T17:09:13.201Z,6.50
2022-11-03T17:14:18.987Z,6.43
2022-11-03T17:19:24.965Z,6.35
2022-11-03T17:24:30.857Z,6.22
2022-11-03T17:29:40.129Z,6.22
2022-11-03T17:34:47.425Z,6.32
2022-11-03T17:39:54.268Z,6.41
2022-11-03T17:45:01.302Z,6.48
2022-11-03T17:50:10.327Z,6.56
2022-11-03T17:55:27.480Z,6.68
2022-11-03T18:00:34.077Z,6.63
2022-11-03T18:05:40.753Z,6.50
2022-11-03T18:10:48.938Z,6.40
2022-11-03T18:16:00.333Z,6.25
2022-11-03T18:21:07.718Z,6.04
2022-11-03T18:26:19.138Z,5.83
2022-11-03T18:31:33.678Z,5.68
2022-11-03T18:36:40.421Z,5.60
2022-11-03T18:41:46.854Z,5.52
2022-11-03T18:46:54.621Z,5.39
2022-11-03T18:52:04.499Z,5.19
2022-11-03T18:57:13.384Z,5.07
2022-11-03T19:02:21.698Z,4.98
2022-11-03T19:07:34.330Z,4.87
2022-11-03T19:12:43.810Z,4.74
2022-11-03T19:17:52.487Z,4.62
2022-11-03T19:22:58.762Z,4.52
2022-11-03T19:28:05.830Z,4.48
2022-11-03T19:33:19.914Z,4.43
2022-11-03T19:38:26.900Z,4.38
2022-11-03T19:43:34.907Z,4.45
2022-11-03T19:48:42.717Z,4.58
2022-11-03T19:53:49.555Z,4.71
2022-11-03T19:58:55.814Z,4.88
2022-11-03T20:04:01.930Z,4.95
2022-11-03T20:09:11.424Z,5.07
2022-11-03T20:14:26.766Z,5.10
2022-11-03T20:19:33.032Z,5.18
2022-11-03T20:24:39.320Z,5.32
2022-11-03T20:29:45.537Z,5.46
2022-11-03T20:34:51.498Z,5.52
2022-11-03T20:39:58.256Z,5.61
2022-11-03T20:45:10.220Z,5.70
2022-11-03T20:50:18.250Z,5.78
2022-11-03T20:55:25.532Z,5.79
2022-11-03T21:00:32.211Z,5.79
2022-11-03T21:05:38.107Z,5.80
2022-11-03T21:10:45.173Z,5.80
2022-11-03T21:16:26.894Z,5.79
2022-11-03T21:21:33.241Z,5.79
2022-11-03T21:26:41.381Z,5.78
2022-11-03T21:31:47.850Z,5.71
2022-11-03T21:36:53.714Z,5.58
2022-11-03T21:42:19.026Z,5.51
2022-11-03T21:47:25.142Z,5.44
2022-11-03T21:52:34.674Z,5.33
2022-11-03T21:57:40.672Z,5.25
2022-11-03T22:02:46.592Z,5.22
2022-11-03T22:07:52.413Z,5.25
2022-11-03T22:12:59.094Z,5.36
2022-11-03T22:18:06.606Z,5.49
2022-11-03T22:23:34.127Z,5.57
2022-11-03T22:28:40.914Z,5.61
2022-11-03T22:34:25.352Z,5.67
2022-11-03T22:39:50.358Z,5.73
2022-11-03T22:45:15.252Z,5.79
2022-11-03T22:50:21.133Z,5.78
2022-11-03T22:55:27.136Z,5.74
2022-11-03T23:00:33.251Z,5.70
2022-11-03T23:05:39.177Z,5.70
2022-11-03T23:10:45.569Z,5.73
2022-11-03T23:15:51.623Z,5.72
2022-11-03T23:21:08.258Z,5.68
2022-11-03T23:26:14.600Z,5.65
2022-11-03T23:31:20.563Z,5.65
2022-11-03T23:36:27.333Z,5.65
2022-11-03T23:41:33.708Z,5.64
2022-11-03T23:46:58.324Z,5.61
2022-11-03T23:52:04.246Z,5.60
2022-11-03T23:57:30.376Z,5.60
